Time;durP1;ratioP1;P1;durP2;ratioP2;P2;SDS_P1;SDS_P2;PMS_P1;PMS_P2;Temp;Humidity;BMP_temperature;BMP_pressure;BME280_temperature;BME280_humidity;BME280_pressure;Samples;Min_cycle;Max_cycle;Signal;HPM_P1;HPM_P2
2023/03/01 00:01:28;;;;;;;6.20;5.70;;;3.20;99.90;;;;;;5016299;28;20172;-77
2023/03/01 00:03:55;;;;;;;7.00;5.43;;;3.10;99.90;;;;;;5016240;28;20216;-76
2023/03/01 00:06:21;;;;;;;7.85;6.38;;;3.10;99.90;;;;;;5016015;28;20187;-77
2023/03/01 00:08:47;;;;;;;9.82;6.65;;;3.30;99.90;;;;;;5016125;28;20518;-76
2023/03/01 00:11:16;;;;;;;7.25;6.55;;;3.40;99.90;;;;;;4998363;28;20672;-76
2023/03/01 00:13:43;;;;;;;6.72;6.00;;;3.40;99.90;;;;;;5016072;28;20260;-77
2023/03/01 00:16:18;;;;;;;6.90;6.28;;;3.40;99.90;;;;;;5015701;28;20173;-76
2023/03/01 00:18:44;;;;;;;10.63;6.47;;;3.10;99.90;;;;;;4997922;28;20171;-76
2023/03/01 00:21:10;;;;;;;7.60;6.13;;;3.00;99.90;;;;;;5015825;28;20169;-77
2023/03/01 00:23:36;;;;;;;6.25;5.65;;;3.10;99.90;;;;;;5015537;28;20242;-76
2023/03/01 00:26:06;;;;;;;6.32;5.32;;;3.10;99.90;;;;;;5015763;28;20637;-76
2023/03/01 00:28:31;;;;;;;6.90;6.20;;;3.20;99.90;;;;;;5015887;28;20222;-76
2023/03/01 00:31:03;;;;;;;8.20;6.47;;;3.40;99.90;;;;;;5015549;28;20540;-77
2023/03/01 00:33:28;;;;;;;7.18;6.30;;;3.50;99.90;;;;;;5014138;28;20247;-76
2023/03/01 00:35:54;;;;;;;8.38;5.93;;;3.30;99.90;;;;;;5015831;28;20176;-76
2023/03/01 00:38:19;;;;;;;13.50;5.95;;;3.20;99.90;;;;;;5015492;28;20165;-77
2023/03/01 00:40:45;;;;;;;6.50;5.90;;;3.10;99.90;;;;;;5015570;28;20160;-76
2023/03/01 00:43:11;;;;;;;8.02;5.90;;;3.20;99.90;;;;;;5015310;28;20728;-77
2023/03/01 00:45:36;;;;;;;7.78;6.10;;;3.20;99.90;;;;;;5014015;28;20263;-76
2023/03/01 00:48:02;;;;;;;7.28;6.03;;;3.30;99.90;;;;;;5015338;28;20183;-76
2023/03/01 00:50:28;;;;;;;6.75;5.80;;;3.40;99.90;;;;;;5015247;28;20667;-76
2023/03/01 00:52:55;;;;;;;9.93;6.47;;;3.40;99.90;;;;;;5015138;28;20189;-77
2023/03/01 00:55:22;;;;;;;17.88;6.38;;;3.20;99.90;;;;;;5015210;28;20172;-77
2023/03/01 00:57:47;;;;;;;10.00;6.28;;;3.20;99.90;;;;;;5015271;28;20169;-76
2023/03/01 01:00:13;;;;;;;7.40;6.15;;;3.20;99.90;;;;;;4997606;28;20176;-76
2023/03/01 01:02:40;;;;;;;16.30;6.03;;;3.20;99.90;;;;;;5013357;28;20267;-77
2023/03/01 01:05:06;;;;;;;6.50;5.72;;;3.30;99.90;;;;;;5014908;28;20184;-76
2023/03/01 01:07:31;;;;;;;8.63;5.57;;;3.30;99.90;;;;;;5014745;28;20191;-76
2023/03/01 01:09:57;;;;;;;7.20;5.55;;;3.30;99.90;;;;;;5014849;28;20236;-76
2023/03/01 01:12:22;;;;;;;7.23;5.80;;;3.20;99.90;;;;;;4997536;28;20184;-76
2023/03/01 01:14:48;;;;;;;8.63;5.93;;;2.90;99.90;;;;;;5014836;28;20188;-76
2023/03/01 01:17:13;;;;;;;7.35;5.43;;;2.80;99.90;;;;;;4997351;28;20176;-76
2023/03/01 01:19:39;;;;;;;8.23;5.57;;;2.80;99.90;;;;;;5014843;28;20585;-76
2023/03/01 01:22:05;;;;;;;8.10;6.50;;;2.60;99.90;;;;;;5014492;28;20184;-77
2023/03/01 01:24:31;;;;;;;6.35;5.00;;;2.60;99.90;;;;;;5014731;28;20196;-77
2023/03/01 01:26:56;;;;;;;5.82;5.32;;;2.70;99.90;;;;;;5014780;28;20219;-76
2023/03/01 01:29:22;;;;;;;5.80;5.25;;;2.60;99.90;;;;;;5014429;28;20196;-77
2023/03/01 01:31:48;;;;;;;5.57;5.07;;;2.70;99.90;;;;;;5014546;28;20172;-76
2023/03/01 01:34:20;;;;;;;7.50;6.70;;;2.70;99.90;;;;;;5014525;28;20725;-76
2023/03/01 01:36:50;;;;;;;10.63;6.22;;;2.70;99.90;;;;;;5015118;28;20574;-76
2023/03/01 01:39:16;;;;;;;6.13;5.47;;;2.60;99.90;;;;;;5014372;28;20179;-76
2023/03/01 01:41:42;;;;;;;10.98;5.55;;;2.80;99.90;;;;;;5014349;28;20168;-76
2023/03/01 01:44:28;;;;;;;7.28;5.57;;;2.80;99.90;;;;;;5012803;28;20246;-77
2023/03/01 01:47:12;;;;;;;6.35;5.75;;;2.60;99.90;;;;;;5014056;28;20173;-76
2023/03/01 01:49:44;;;;;;;5.90;5.40;;;2.30;99.90;;;;;;5014039;28;20246;-76
2023/03/01 01:52:10;;;;;;;7.40;5.45;;;2.30;99.90;;;;;;5012872;28;20617;-76
2023/03/01 01:55:00;;;;;;;6.13;5.53;;;2.30;99.90;;;;;;5014217;28;20203;-77
2023/03/01 01:57:41;;;;;;;8.02;6.13;;;2.50;99.90;;;;;;4996539;28;20542;-76
2023/03/01 02:00:19;;;;;;;6.90;6.25;;;2.60;99.90;;;;;;5014000;28;20180;-76
2023/03/01 02:02:48;;;;;;;8.40;6.20;;;2.50;99.90;;;;;;5013893;28;20188;-76
2023/03/01 02:05:25;;;;;;;7.43;5.82;;;2.70;99.90;;;;;;5014036;28;20165;-76
2023/03/01 02:07:52;;;;;;;7.80;5.50;;;2.80;99.90;;;;;;5012699;28;20641;-76
2023/03/01 02:10:17;;;;;;;12.48;5.60;;;2.90;99.90;;;;;;5013756;28;20211;-76
2023/03/01 02:12:43;;;;;;;8.73;6.15;;;2.70;99.90;;;;;;5013612;28;20542;-76
2023/03/01 02:15:10;;;;;;;6.55;5.95;;;2.60;99.90;;;;;;5013957;28;20234;-76
2023/03/01 02:17:42;;;;;;;9.95;6.28;;;2.80;99.90;;;;;;4996082;28;20176;-76
2023/03/01 02:20:20;;;;;;;7.45;5.38;;;2.70;99.90;;;;;;5013580;28;20633;-76
2023/03/01 02:22:46;;;;;;;6.18;5.55;;;2.70;99.90;;;;;;5013667;28;20164;-76
2023/03/01 02:25:24;;;;;;;7.65;6.35;;;2.70;99.90;;;;;;5013291;28;20533;-76
2023/03/01 02:27:54;;;;;;;8.25;5.47;;;2.80;99.90;;;;;;5013208;28;20684;-76
2023/03/01 02:30:22;;;;;;;7.50;5.82;;;2.70;99.90;;;;;;4995409;28;20257;-77
2023/03/01 02:32:48;;;;;;;6.33;5.67;;;2.60;99.90;;;;;;5013321;28;20164;-76
2023/03/01 02:35:17;;;;;;;6.82;5.63;;;2.70;99.90;;;;;;5013731;28;20536;-77
2023/03/01 02:37:44;;;;;;;10.23;6.07;;;2.80;99.90;;;;;;5013722;28;20517;-77
2023/03/01 02:40:16;;;;;;;7.72;6.05;;;2.70;99.90;;;;;;5013377;28;20210;-76
2023/03/01 02:42:51;;;;;;;8.93;6.20;;;2.70;99.90;;;;;;5013197;28;20810;-75
2023/03/01 02:45:17;;;;;;;7.05;6.25;;;2.80;99.90;;;;;;5012999;28;20255;-76
2023/03/01 02:47:43;;;;;;;8.02;5.85;;;2.80;99.90;;;;;;5013323;28;20681;-76
2023/03/01 02:50:28;;;;;;;8.30;6.70;;;2.60;99.90;;;;;;5013380;28;20204;-76
2023/03/01 02:53:04;;;;;;;6.88;5.50;;;2.70;99.90;;;;;;4997011;28;20231;-76
2023/03/01 02:55:30;;;;;;;6.38;5.78;;;2.50;99.90;;;;;;5013432;28;20176;-76
2023/03/01 02:57:56;;;;;;;9.50;5.65;;;2.50;99.90;;;;;;5012977;28;20187;-76
2023/03/01 03:00:32;;;;;;;7.35;6.30;;;2.40;99.90;;;;;;5012820;28;20160;-76
2023/03/01 03:02:58;;;;;;;7.10;6.03;;;2.50;99.90;;;;;;5012894;28;20632;-76
2023/03/01 03:05:29;;;;;;;6.07;5.55;;;2.60;99.90;;;;;;5013065;28;20211;-76
2023/03/01 03:07:55;;;;;;;9.35;7.20;;;2.60;99.90;;;;;;5013108;28;20173;-76
2023/03/01 03:10:27;;;;;;;8.38;6.05;;;2.50;99.90;;;;;;5012940;28;20212;-76
2023/03/01 03:12:56;;;;;;;10.33;6.73;;;2.50;99.90;;;;;;5013129;28;20279;-76
2023/03/01 03:15:22;;;;;;;7.30;6.60;;;2.60;99.90;;;;;;5013097;28;20180;-76
2023/03/01 03:17:49;;;;;;;9.00;6.05;;;2.50;99.90;;;;;;5012923;28;20165;-76
2023/03/01 03:20:18;;;;;;;7.20;6.37;;;2.60;99.90;;;;;;5013027;28;20228;-76
2023/03/01 03:22:50;;;;;;;9.30;6.18;;;2.40;99.90;;;;;;5013282;28;20524;-77
2023/03/01 03:25:17;;;;;;;7.05;6.07;;;2.20;99.90;;;;;;5012056;28;20172;-76
2023/03/01 03:27:44;;;;;;;13.77;6.90;;;2.10;99.90;;;;;;5013004;28;20168;-76
2023/03/01 03:30:13;;;;;;;8.23;6.53;;;2.10;99.90;;;;;;5012925;28;20235;-77
2023/03/01 03:32:51;;;;;;;7.35;6.13;;;1.90;99.90;;;;;;4994804;28;20164;-76
2023/03/01 03:35:31;;;;;;;8.80;6.35;;;1.90;99.90;;;;;;4995169;28;20168;-76
2023/03/01 03:38:01;;;;;;;7.40;5.97;;;2.10;99.90;;;;;;5012873;28;20218;-76
2023/03/01 03:40:36;;;;;;;7.82;6.68;;;2.30;99.90;;;;;;5011579;28;20259;-76
2023/03/01 03:43:13;;;;;;;14.13;7.18;;;1.90;99.90;;;;;;5012620;28;20652;-76
2023/03/01 03:45:39;;;;;;;7.65;6.72;;;1.80;99.90;;;;;;5011191;28;20312;-76
2023/03/01 03:48:07;;;;;;;9.95;6.88;;;1.70;99.90;;;;;;5012755;28;20168;-76
2023/03/01 03:50:33;;;;;;;14.07;7.25;;;1.90;99.90;;;;;;5011266;28;20695;-76
2023/03/01 03:53:04;;;;;;;9.47;6.70;;;1.90;99.90;;;;;;5012546;28;20276;-76
2023/03/01 03:55:30;;;;;;;13.20;7.05;;;1.90;99.90;;;;;;5012471;28;20161;-76
2023/03/01 03:58:06;;;;;;;8.52;6.28;;;1.90;99.90;;;;;;5012488;28;20535;-76
2023/03/01 04:00:33;;;;;;;11.38;6.60;;;1.80;99.90;;;;;;5012572;28;20211;-76
2023/03/01 04:03:00;;;;;;;18.17;7.03;;;1.50;99.90;;;;;;5012233;28;20685;-76
2023/03/01 04:05:26;;;;;;;8.63;7.72;;;1.40;99.90;;;;;;5012468;28;20618;-76
2023/03/01 04:08:00;;;;;;;10.57;8.07;;;1.30;99.90;;;;;;4994907;28;20164;-79
2023/03/01 04:10:30;;;;;;;22.87;7.67;;;1.50;99.90;;;;;;5012687;28;20203;-76
2023/03/01 04:12:56;;;;;;;9.60;6.87;;;1.50;99.90;;;;;;5012902;28;20541;-79
2023/03/01 04:15:23;;;;;;;10.60;7.03;;;1.50;99.90;;;;;;5011423;28;20172;-81
2023/03/01 04:17:51;;;;;;;7.67;6.77;;;1.70;99.90;;;;;;5011541;28;20172;-83
2023/03/01 04:20:26;;;;;;;8.13;6.97;;;1.60;99.90;;;;;;5012716;28;20641;-81
2023/03/01 04:23:10;;;;;;;7.53;6.37;;;1.60;99.90;;;;;;4994753;28;20196;-76
2023/03/01 04:25:38;;;;;;;8.00;6.43;;;1.50;99.90;;;;;;5011212;28;20551;-76
2023/03/01 04:28:03;;;;;;;9.53;7.10;;;1.40;99.90;;;;;;5012350;28;20264;-76
2023/03/01 04:30:29;;;;;;;9.07;6.33;;;1.50;99.90;;;;;;5012021;28;20212;-76
2023/03/01 04:32:54;;;;;;;8.40;6.78;;;1.60;99.90;;;;;;5011690;28;20657;-76
2023/03/01 04:35:20;;;;;;;10.38;6.82;;;1.70;99.90;;;;;;5012597;28;20191;-76
2023/03/01 04:37:46;;;;;;;8.60;7.10;;;1.70;99.90;;;;;;5016035;28;20193;-77
2023/03/01 04:40:16;;;;;;;7.17;6.13;;;1.60;99.90;;;;;;4998643;28;20220;-77
2023/03/01 04:42:42;;;;;;;7.57;5.77;;;1.50;99.90;;;;;;5016277;28;20169;-80
2023/03/01 04:45:12;;;;;;;8.47;6.93;;;1.50;99.90;;;;;;5016430;28;20299;-80
2023/03/01 04:47:44;;;;;;;7.80;6.90;;;1.50;99.90;;;;;;5016161;28;20617;-78
2023/03/01 04:50:10;;;;;;;13.27;7.18;;;1.60;99.90;;;;;;5014474;28;20563;-78
2023/03/01 04:52:36;;;;;;;19.20;6.83;;;1.20;99.90;;;;;;5015476;28;20191;-76
2023/03/01 04:55:03;;;;;;;8.83;6.50;;;1.00;99.90;;;;;;5015494;28;20248;-78
2023/03/01 04:57:29;;;;;;;8.10;6.80;;;1.20;99.90;;;;;;5015495;28;20167;-76
2023/03/01 04:59:54;;;;;;;9.63;6.97;;;1.30;99.90;;;;;;5017924;28;20173;-77
2023/03/01 05:02:20;;;;;;;7.83;6.93;;;1.40;99.90;;;;;;5018249;28;20208;-79
2023/03/01 05:04:45;;;;;;;6.57;5.87;;;1.10;99.90;;;;;;5017928;28;20192;-79
2023/03/01 05:07:12;;;;;;;12.00;6.40;;;1.10;99.90;;;;;;5017704;28;20573;-79
2023/03/01 05:09:38;;;;;;;10.43;6.57;;;1.10;99.90;;;;;;5017346;28;20201;-81
2023/03/01 05:12:04;;;;;;;6.57;5.97;;;1.10;99.90;;;;;;5017698;28;20180;-79
2023/03/01 05:14:30;;;;;;;12.13;6.50;;;1.30;99.90;;;;;;5017802;28;20185;-81
2023/03/01 05:17:03;;;;;;;9.37;6.80;;;1.40;99.90;;;;;;5016555;28;20263;-79
2023/03/01 05:19:30;;;;;;;16.70;7.23;;;1.10;99.90;;;;;;5015086;28;20254;-76
2023/03/01 05:22:03;;;;;;;12.13;7.40;;;1.10;99.90;;;;;;5015222;28;20304;-78
2023/03/01 05:24:31;;;;;;;8.10;6.30;;;1.10;99.90;;;;;;5014972;28;20196;-81
2023/03/01 05:26:57;;;;;;;11.40;6.57;;;1.10;99.90;;;;;;5015102;28;20247;-82
2023/03/01 05:29:27;;;;;;;15.87;6.97;;;1.00;99.90;;;;;;5014658;28;20330;-78
2023/03/01 05:32:00;;;;;;;10.13;6.53;;;1.10;99.90;;;;;;4997435;28;20258;-77
2023/03/01 05:34:32;;;;;;;11.53;5.87;;;1.10;99.90;;;;;;5014504;28;20192;-77
2023/03/01 05:36:58;;;;;;;11.97;6.97;;;1.00;99.90;;;;;;5014901;28;20176;-79
2023/03/01 05:39:27;;;;;;;6.40;5.50;;;0.90;99.90;;;;;;5014775;28;20183;-79
2023/03/01 05:41:54;;;;;;;7.20;6.17;;;1.00;99.90;;;;;;5014733;28;20172;-84
2023/03/01 05:44:20;;;;;;;8.53;7.03;;;0.80;99.90;;;;;;5014640;28;20546;-80
2023/03/01 05:46:47;;;;;;;8.87;7.17;;;0.80;99.90;;;;;;5014532;28;20247;-77
2023/03/01 05:49:13;;;;;;;8.20;5.83;;;1.00;99.90;;;;;;4996609;28;20168;-77
2023/03/01 05:51:43;;;;;;;9.13;7.03;;;0.90;99.90;;;;;;5014413;28;20649;-79
2023/03/01 05:54:10;;;;;;;16.07;6.60;;;0.80;99.90;;;;;;4996772;28;20188;-77
2023/03/01 05:56:36;;;;;;;8.07;6.57;;;0.60;99.90;;;;;;4996729;28;20169;-76
2023/03/01 05:59:04;;;;;;;8.97;6.20;;;0.80;99.90;;;;;;5014392;28;20168;-81
2023/03/01 06:01:30;;;;;;;10.60;6.93;;;0.80;99.90;;;;;;5014358;28;20679;-82
2023/03/01 06:03:56;;;;;;;8.77;6.27;;;0.80;99.90;;;;;;4996366;28;20610;-83
2023/03/01 06:06:22;;;;;;;10.37;7.17;;;0.90;99.90;;;;;;5013870;28;20252;-85
2023/03/01 06:08:48;;;;;;;15.77;6.60;;;0.90;99.90;;;;;;5014114;28;20553;-77
2023/03/01 06:11:14;;;;;;;7.30;5.73;;;1.00;99.90;;;;;;5013816;28;20208;-79
2023/03/01 06:13:41;;;;;;;11.40;7.00;;;0.70;99.90;;;;;;5015055;28;20227;-80
2023/03/01 06:16:08;;;;;;;8.82;6.03;;;0.80;99.90;;;;;;5013252;28;20176;-77
2023/03/01 06:18:33;;;;;;;10.23;7.07;;;0.80;99.90;;;;;;4996274;28;20246;-78
2023/03/01 06:20:59;;;;;;;35.70;7.27;;;0.80;99.90;;;;;;4995832;28;20192;-83
2023/03/01 06:23:25;;;;;;;10.97;7.50;;;0.80;99.90;;;;;;5013726;28;20258;-81
2023/03/01 06:25:51;;;;;;;12.43;7.40;;;1.00;99.90;;;;;;5013817;28;20206;-82
2023/03/01 06:28:16;;;;;;;9.63;6.20;;;1.10;99.90;;;;;;5013469;28;20201;-78
2023/03/01 06:30:42;;;;;;;11.50;6.70;;;1.10;99.90;;;;;;5013464;28;20760;-78
2023/03/01 06:33:08;;;;;;;9.93;8.13;;;1.00;99.90;;;;;;5013554;28;20192;-78
2023/03/01 06:35:34;;;;;;;17.87;6.87;;;1.10;99.90;;;;;;5013241;28;20172;-77
2023/03/01 06:38:01;;;;;;;10.17;7.33;;;1.10;99.90;;;;;;5013389;28;20172;-77
2023/03/01 06:40:28;;;;;;;14.67;7.67;;;1.10;99.90;;;;;;5013496;28;20180;-78
2023/03/01 06:42:54;;;;;;;7.73;6.93;;;1.00;99.90;;;;;;5013097;28;20198;-77
2023/03/01 06:45:20;;;;;;;15.23;6.73;;;0.90;99.90;;;;;;5013220;28;20251;-76
2023/03/01 06:47:46;;;;;;;7.63;6.70;;;0.90;99.90;;;;;;5012990;28;20171;-77
2023/03/01 06:50:13;;;;;;;8.73;7.10;;;1.20;99.90;;;;;;5013206;28;20204;-78
2023/03/01 06:52:39;;;;;;;8.10;7.13;;;1.10;99.90;;;;;;4995581;28;20223;-77
2023/03/01 06:55:05;;;;;;;17.58;7.15;;;1.10;99.90;;;;;;5014053;28;20180;-77
2023/03/01 06:57:31;;;;;;;12.10;7.20;;;1.10;99.90;;;;;;5013102;28;20222;-80
2023/03/01 06:59:56;;;;;;;11.40;6.70;;;0.90;99.90;;;;;;5013039;28;20803;-84
2023/03/01 07:02:23;;;;;;;11.23;7.10;;;1.00;99.90;;;;;;5013131;28;20257;-82
2023/03/01 07:04:50;;;;;;;15.83;6.67;;;1.00;99.90;;;;;;5013272;28;20203;-83
2023/03/01 07:07:17;;;;;;;7.13;6.43;;;0.80;99.90;;;;;;5012820;28;20248;-78
2023/03/01 07:09:44;;;;;;;14.77;7.70;;;0.80;99.90;;;;;;4995412;28;20208;-77
2023/03/01 07:12:09;;;;;;;22.87;7.33;;;0.80;99.90;;;;;;5013391;28;20165;-76
2023/03/01 07:14:35;;;;;;;12.07;7.30;;;0.70;99.90;;;;;;5013290;28;20684;-76
2023/03/01 07:17:01;;;;;;;12.57;6.70;;;0.70;99.90;;;;;;5013491;28;20172;-80
2023/03/01 07:19:27;;;;;;;8.20;7.33;;;0.90;99.90;;;;;;4995158;28;20577;-76
2023/03/01 07:21:52;;;;;;;9.60;7.20;;;1.10;99.90;;;;;;5012977;28;20219;-77
2023/03/01 07:24:18;;;;;;;9.27;6.50;;;0.90;99.90;;;;;;5012810;28;20271;-82
2023/03/01 07:26:44;;;;;;;14.77;6.83;;;1.00;99.90;;;;;;5012547;28;20179;-77
2023/03/01 07:29:10;;;;;;;10.90;7.50;;;1.00;99.90;;;;;;4994787;28;20172;-77
2023/03/01 07:31:36;;;;;;;9.47;7.30;;;1.10;99.90;;;;;;5012530;28;20179;-77
2023/03/01 07:34:02;;;;;;;10.10;7.07;;;1.30;99.90;;;;;;5012294;28;20192;-76
2023/03/01 07:36:28;;;;;;;20.93;7.33;;;1.20;99.90;;;;;;5011999;28;20169;-77
2023/03/01 07:38:55;;;;;;;12.60;6.63;;;1.20;99.90;;;;;;5013343;28;20613;-78
2023/03/01 07:41:21;;;;;;;15.27;7.37;;;1.10;99.90;;;;;;5012963;28;20172;-78
2023/03/01 07:43:47;;;;;;;10.67;8.10;;;1.10;99.90;;;;;;4995570;28;20188;-77
2023/03/01 07:46:12;;;;;;;12.13;7.53;;;1.10;99.90;;;;;;5012792;28;20553;-82
2023/03/01 07:48:38;;;;;;;13.87;8.20;;;1.20;99.90;;;;;;5012692;28;20161;-77
2023/03/01 07:51:06;;;;;;;14.40;6.80;;;1.30;99.90;;;;;;5012297;28;20520;-78
2023/03/01 07:53:33;;;;;;;14.43;7.13;;;1.30;99.90;;;;;;5012785;28;20194;-81
2023/03/01 07:56:02;;;;;;;12.33;6.93;;;1.30;99.90;;;;;;4994942;28;20177;-78
2023/03/01 07:58:27;;;;;;;9.70;7.43;;;1.50;99.90;;;;;;5012310;28;20173;-78
2023/03/01 08:00:53;;;;;;;24.53;8.03;;;1.60;99.90;;;;;;5012947;28;20172;-82
2023/03/01 08:03:19;;;;;;;8.70;7.80;;;1.60;99.90;;;;;;5012665;28;20196;-85
2023/03/01 08:05:44;;;;;;;12.35;7.78;;;1.60;99.90;;;;;;5009395;28;20182;-78
2023/03/01 08:08:10;;;;;;;11.67;7.37;;;1.60;99.90;;;;;;5009293;28;20633;-84
2023/03/01 08:10:36;;;;;;;10.50;7.67;;;1.50;99.90;;;;;;5019647;28;20208;-77
2023/03/01 08:13:02;;;;;;;13.82;7.93;;;1.70;99.90;;;;;;5004206;28;20231;-77
2023/03/01 08:15:27;;;;;;;9.53;7.50;;;1.70;99.90;;;;;;5023150;28;20179;-81
2023/03/01 08:17:53;;;;;;;10.55;7.53;;;1.80;99.90;;;;;;5025250;28;20172;-80
2023/03/01 08:20:18;;;;;;;9.95;7.97;;;1.90;99.90;;;;;;5017719;28;20185;-77
2023/03/01 08:22:44;;;;;;;16.50;8.02;;;1.90;99.90;;;;;;5014546;28;20629;-79
2023/03/01 08:25:10;;;;;;;20.13;8.07;;;2.00;99.90;;;;;;5000352;28;20763;-78
2023/03/01 08:27:35;;;;;;;16.52;7.70;;;2.10;99.90;;;;;;5002953;28;20200;-79
2023/03/01 08:30:01;;;;;;;9.10;7.65;;;2.10;99.90;;;;;;5009275;28;20219;-84
2023/03/01 08:32:26;;;;;;;11.15;7.90;;;2.20;99.90;;;;;;5027870;28;20180;-83
2023/03/01 08:34:52;;;;;;;16.02;8.15;;;2.20;99.90;;;;;;4997512;28;20260;-84
2023/03/01 08:37:18;;;;;;;7.15;6.45;;;2.20;99.90;;;;;;4992838;28;20646;-81
2023/03/01 08:39:43;;;;;;;10.30;6.75;;;2.30;99.90;;;;;;4996463;28;20515;-79
2023/03/01 08:42:09;;;;;;;13.57;7.40;;;2.20;99.90;;;;;;5024299;28;20241;-79
2023/03/01 08:44:34;;;;;;;9.88;7.40;;;2.30;99.90;;;;;;5005143;28;20232;-78
2023/03/01 08:47:02;;;;;;;8.10;7.07;;;2.40;99.90;;;;;;5020874;28;20191;-78
2023/03/01 08:49:27;;;;;;;11.32;8.38;;;2.50;99.90;;;;;;4993713;28;20582;-78
2023/03/01 08:51:54;;;;;;;8.23;7.30;;;2.60;99.90;;;;;;5004409;28;20576;-78
2023/03/01 08:54:21;;;;;;;9.82;6.88;;;2.60;99.90;;;;;;4999830;28;20276;-81
2023/03/01 08:56:48;;;;;;;18.55;7.20;;;2.40;99.90;;;;;;5009002;28;20248;-77
2023/03/01 08:59:15;;;;;;;18.13;8.10;;;2.40;99.90;;;;;;4997580;28;20169;-77
2023/03/01 09:01:43;;;;;;;7.72;6.75;;;2.50;99.90;;;;;;5001089;28;20734;-78
2023/03/01 09:04:10;;;;;;;12.02;7.75;;;2.80;99.90;;;;;;5011822;28;20210;-79
2023/03/01 09:06:36;;;;;;;11.15;7.78;;;2.90;99.90;;;;;;5012640;28;20267;-77
2023/03/01 09:09:04;;;;;;;12.75;7.45;;;3.00;99.90;;;;;;5014625;28;20172;-77
2023/03/01 09:11:29;;;;;;;11.60;7.63;;;3.10;99.90;;;;;;5014577;28;20282;-77
2023/03/01 09:13:55;;;;;;;15.23;7.90;;;3.00;99.90;;;;;;5013340;28;20192;-79
2023/03/01 09:16:22;;;;;;;17.30;7.45;;;3.00;99.90;;;;;;5011903;28;20545;-76
2023/03/01 09:18:52;;;;;;;17.15;7.63;;;3.10;99.90;;;;;;5013673;28;20168;-78
2023/03/01 09:21:20;;;;;;;7.15;6.45;;;3.20;99.90;;;;;;5012983;28;20513;-77
2023/03/01 09:23:47;;;;;;;8.70;7.53;;;3.20;99.90;;;;;;5011431;28;20181;-78
2023/03/01 09:26:21;;;;;;;10.02;7.28;;;3.30;99.90;;;;;;5012397;28;20200;-77
2023/03/01 09:28:47;;;;;;;10.27;8.30;;;3.30;99.90;;;;;;5014207;28;20203;-78
2023/03/01 09:31:14;;;;;;;14.88;7.88;;;3.50;99.90;;;;;;5013768;28;20204;-78
2023/03/01 09:33:42;;;;;;;12.43;8.68;;;3.60;99.90;;;;;;5012864;28;20185;-78
2023/03/01 09:36:20;;;;;;;16.38;7.65;;;3.80;99.90;;;;;;5010569;28;20217;-78
2023/03/01 09:38:47;;;;;;;10.43;7.13;;;3.70;99.90;;;;;;4995235;28;20164;-77
2023/03/01 09:41:40;;;;;;;10.93;8.07;;;3.60;99.90;;;;;;4995977;28;20275;-78
2023/03/01 09:44:32;;;;;;;11.43;7.65;;;3.70;99.90;;;;;;5013113;28;20204;-77
2023/03/01 09:46:59;;;;;;;9.23;7.43;;;3.60;99.90;;;;;;5012474;28;20164;-77
2023/03/01 09:49:35;;;;;;;14.27;7.50;;;3.70;99.90;;;;;;4995339;28;20207;-77
2023/03/01 09:52:20;;;;;;;12.98;8.02;;;3.60;99.90;;;;;;5007902;28;20172;-79
2023/03/01 09:54:49;;;;;;;15.20;8.63;;;3.60;99.90;;;;;;5020683;28;20195;-77
2023/03/01 09:57:32;;;;;;;9.98;7.90;;;3.70;99.90;;;;;;5027680;28;20175;-77
2023/03/01 10:00:19;;;;;;;13.43;8.45;;;3.80;99.90;;;;;;5031045;28;20176;-77
2023/03/01 10:02:52;;;;;;;10.20;8.43;;;3.90;99.90;;;;;;5004131;28;20550;-78
2023/03/01 10:05:42;;;;;;;19.15;9.27;;;3.90;99.90;;;;;;5020534;28;20191;-82
2023/03/01 10:08:08;;;;;;;12.73;6.75;;;3.90;99.90;;;;;;5022825;28;20175;-76
2023/03/01 10:10:37;;;;;;;9.57;7.47;;;4.00;99.90;;;;;;5028179;28;20216;-79
2023/03/01 10:13:56;;;;;;;13.68;7.95;;;4.20;99.90;;;;;;5029122;28;20668;-77
2023/03/01 10:16:44;;;;;;;23.13;7.63;;;4.30;99.90;;;;;;4978713;28;20207;-78
2023/03/01 10:19:20;;;;;;;16.88;7.90;;;4.50;99.90;;;;;;5033313;28;20176;-77
2023/03/01 10:21:46;;;;;;;11.43;7.25;;;4.60;99.90;;;;;;5023869;28;20234;-77
2023/03/01 10:24:19;;;;;;;7.82;6.78;;;4.60;99.90;;;;;;5032441;28;20195;-78
2023/03/01 10:27:02;;;;;;;11.25;7.75;;;4.40;99.90;;;;;;5031977;28;20175;-77
2023/03/01 10:29:50;;;;;;;9.50;7.20;;;4.50;99.90;;;;;;5032249;28;20184;-78
2023/03/01 10:32:18;;;;;;;9.07;7.53;;;4.60;99.90;;;;;;5019880;28;20222;-77
2023/03/01 10:34:44;;;;;;;13.07;7.90;;;4.60;99.90;;;;;;5017630;28;20713;-79
2023/03/01 10:37:15;;;;;;;9.43;7.18;;;4.80;99.90;;;;;;5038400;28;20243;-78
2023/03/01 10:39:58;;;;;;;10.73;7.85;;;4.90;99.90;;;;;;5016717;28;20168;-78
2023/03/01 10:42:35;;;;;;;8.80;7.40;;;4.90;99.90;;;;;;5014080;28;20178;-82
2023/03/01 10:45:30;;;;;;;7.90;6.90;;;5.10;99.90;;;;;;5032247;28;20261;-80
2023/03/01 10:48:24;;;;;;;9.23;7.53;;;5.10;99.90;;;;;;5015441;28;20168;-79
2023/03/01 10:50:59;;;;;;;7.72;6.60;;;5.20;99.90;;;;;;5032643;28;20203;-79
2023/03/01 10:53:57;;;;;;;13.98;7.28;;;5.30;99.90;;;;;;5032992;28;20195;-81
2023/03/01 10:56:23;;;;;;;9.48;7.30;;;5.30;99.90;;;;;;4968982;28;20282;-78
2023/03/01 10:59:03;;;;;;;10.27;6.57;;;5.20;99.90;;;;;;5032782;28;20160;-78
2023/03/01 11:01:32;;;;;;;8.68;6.85;;;5.20;99.90;;;;;;5032537;28;20168;-77
2023/03/01 11:04:06;;;;;;;10.27;7.20;;;5.20;99.90;;;;;;5032078;28;20207;-78
